Terminal Aerodrome Forecast
Issued by NWS Corpus Christi, TX

Home | Current Version | Previous Version | Text Only | Print | Product List | Glossary On
Versions: 1 2 3 4 5 6 7 8 9 10 11 12 13
000
FTUS44 KCRP 261357 AAA
TAFCRP
TAF AMD
KCRP 261357Z 2614/2712 17009KT P6SM VCTS SCT015CB BKN250
      TEMPO 2614/2618 BKN015CB BKN250
     FM261800 14015KT P6SM VCTS SCT035CB BKN050
     FM270300 14015KT P6SM FEW030 BKN250=

USA.gov is the U.S. government's official web portal to all federal, state and local government web resources and services.